createdAt,value
2018-11-11T00:00:22.985Z,8.50
2018-11-11T00:02:52.663Z,8.50
2018-11-11T00:05:21.706Z,8.60
2018-11-11T00:07:50.657Z,8.60
2018-11-11T00:10:19.410Z,8.60
2018-11-11T00:12:47.994Z,8.60
2018-11-11T00:15:17.901Z,8.60
2018-11-11T00:17:47.341Z,8.60
2018-11-11T00:20:15.978Z,8.60
2018-11-11T00:22:44.643Z,8.60
2018-11-11T00:25:13.245Z,8.60
2018-11-11T00:27:41.921Z,8.60
2018-11-11T00:30:14.231Z,8.60
2018-11-11T00:32:42.864Z,8.60
2018-11-11T00:35:11.550Z,8.60
2018-11-11T00:37:41.109Z,8.60
2018-11-11T00:40:10.802Z,8.60
2018-11-11T00:42:39.370Z,8.60
2018-11-11T00:45:08.783Z,8.60
2018-11-11T00:47:37.454Z,8.60
2018-11-11T00:50:07.341Z,8.60
2018-11-11T00:52:36.441Z,8.60
2018-11-11T00:55:06.190Z,8.50
2018-11-11T00:57:34.764Z,8.50
2018-11-11T01:00:03.574Z,8.50
2018-11-11T01:02:32.158Z,8.50
2018-11-11T01:05:00.726Z,8.50
2018-11-11T01:07:29.309Z,8.50
2018-11-11T01:09:57.933Z,8.50
2018-11-11T01:12:26.592Z,8.50
2018-11-11T01:14:56.518Z,8.50
2018-11-11T01:17:25.169Z,8.50
2018-11-11T01:19:53.758Z,8.50
2018-11-11T01:22:22.634Z,8.50
2018-11-11T01:24:51.253Z,8.50
2018-11-11T01:27:19.830Z,8.50
2018-11-11T01:29:48.385Z,8.60
2018-11-11T01:32:16.979Z,8.60
2018-11-11T01:34:45.558Z,8.50
2018-11-11T01:37:14.725Z,8.50
2018-11-11T01:39:43.289Z,8.50
2018-11-11T01:42:11.849Z,8.60
2018-11-11T01:44:40.409Z,8.60
2018-11-11T01:47:09.018Z,8.60
2018-11-11T01:49:37.640Z,8.60
2018-11-11T01:52:06.571Z,8.60
2018-11-11T01:54:35.116Z,8.60
2018-11-11T01:57:03.693Z,8.60
2018-11-11T01:59:33.975Z,8.60
2018-11-11T02:02:02.606Z,8.60
2018-11-11T02:04:31.222Z,8.60
2018-11-11T02:06:59.852Z,8.60
2018-11-11T02:09:28.438Z,8.60
2018-11-11T02:11:57.018Z,8.60
2018-11-11T02:14:25.697Z,8.60
2018-11-11T02:16:54.295Z,8.60
2018-11-11T02:19:22.905Z,8.60
2018-11-11T02:21:52.387Z,8.60
2018-11-11T02:24:20.974Z,8.70
2018-11-11T02:26:49.569Z,8.70
2018-11-11T02:29:18.458Z,8.70
2018-11-11T02:31:47.030Z,8.70
2018-11-11T02:34:15.592Z,8.70
2018-11-11T02:36:44.238Z,8.70
2018-11-11T02:39:12.883Z,8.70
2018-11-11T02:41:41.461Z,8.70
2018-11-11T02:44:10.580Z,8.70
2018-11-11T02:46:39.169Z,8.70
2018-11-11T02:49:07.747Z,8.70
2018-11-11T02:51:36.399Z,8.70
2018-11-11T02:54:05.105Z,8.70
2018-11-11T02:56:33.685Z,8.70
2018-11-11T02:59:02.298Z,8.70
2018-11-11T03:01:30.885Z,8.70
2018-11-11T03:03:59.509Z,8.70
2018-11-11T03:06:28.567Z,8.70
2018-11-11T03:08:57.226Z,8.70
2018-11-11T03:11:25.796Z,8.70
2018-11-11T03:13:54.385Z,8.70
2018-11-11T03:16:22.993Z,8.80
2018-11-11T03:18:51.690Z,8.80
2018-11-11T03:21:20.417Z,8.70
2018-11-11T03:23:49.011Z,8.70
2018-11-11T03:26:17.591Z,8.80
2018-11-11T03:28:46.768Z,8.80
2018-11-11T03:31:15.373Z,8.80
2018-11-11T03:33:43.965Z,8.80
2018-11-11T03:36:12.982Z,8.80
2018-11-11T03:38:41.558Z,8.80
2018-11-11T03:41:10.202Z,8.80
2018-11-11T03:43:38.814Z,8.80
2018-11-11T03:46:07.394Z,8.80
2018-11-11T03:48:35.973Z,8.80
2018-11-11T03:51:07.266Z,8.80
2018-11-11T03:53:35.874Z,8.80
2018-11-11T03:56:04.751Z,8.80
2018-11-11T03:58:33.362Z,8.80
2018-11-11T04:01:01.926Z,8.80
2018-11-11T04:03:30.491Z,8.80
2018-11-11T04:05:59.470Z,8.80
2018-11-11T04:08:28.046Z,8.80
2018-11-11T04:10:56.629Z,8.80
2018-11-11T04:13:28.970Z,8.80
2018-11-11T04:15:57.557Z,8.80
2018-11-11T04:18:26.153Z,8.80
2018-11-11T04:20:55.025Z,8.80
2018-11-11T04:23:23.618Z,8.80
2018-11-11T04:25:52.206Z,8.70
2018-11-11T04:28:21.221Z,8.70
2018-11-11T04:30:49.846Z,8.80
2018-11-11T04:33:18.455Z,8.80
2018-11-11T04:35:47.191Z,8.80
2018-11-11T04:38:15.775Z,8.80
2018-11-11T04:40:44.431Z,8.80
2018-11-11T04:43:13.075Z,8.80
2018-11-11T04:45:41.638Z,8.80
2018-11-11T04:48:10.216Z,8.80
2018-11-11T04:50:38.858Z,8.90
2018-11-11T04:53:07.419Z,8.90
2018-11-11T04:55:36.028Z,8.80
2018-11-11T04:58:04.741Z,8.80
2018-11-11T05:00:33.353Z,8.80
2018-11-11T05:03:01.934Z,8.80
2018-11-11T05:05:30.554Z,8.80
2018-11-11T05:07:59.166Z,8.80
2018-11-11T05:10:27.742Z,8.80
2018-11-11T05:12:56.574Z,8.80
2018-11-11T05:15:25.166Z,8.80
2018-11-11T05:17:53.801Z,8.80
2018-11-11T05:20:22.414Z,8.70
2018-11-11T05:22:50.978Z,8.70
2018-11-11T05:25:19.545Z,8.70
2018-11-11T05:27:48.158Z,8.70
2018-11-11T05:30:16.773Z,8.70
2018-11-11T05:32:45.406Z,8.70
2018-11-11T05:35:14.043Z,8.70
2018-11-11T05:37:43.285Z,8.70
2018-11-11T05:40:12.842Z,8.70
2018-11-11T05:42:42.136Z,8.70
2018-11-11T05:45:11.893Z,8.70
2018-11-11T05:47:41.050Z,8.70
2018-11-11T05:50:11.763Z,8.70
2018-11-11T05:52:40.706Z,8.70
2018-11-11T05:55:09.867Z,8.70
2018-11-11T05:57:39.238Z,8.70
2018-11-11T06:00:10.481Z,8.60
2018-11-11T06:02:39.133Z,8.60
2018-11-11T06:05:10.249Z,8.60
2018-11-11T06:07:38.868Z,8.60
2018-11-11T06:10:09.059Z,8.60
2018-11-11T06:12:37.678Z,8.60
2018-11-11T06:15:07.541Z,8.60
2018-11-11T06:17:36.554Z,8.60
2018-11-11T06:20:06.419Z,8.60
2018-11-11T06:22:35.034Z,8.60
2018-11-11T06:25:03.633Z,8.60
2018-11-11T06:27:32.662Z,8.60
2018-11-11T06:30:01.285Z,8.60
2018-11-11T06:32:29.874Z,8.50
2018-11-11T06:34:58.471Z,8.50
2018-11-11T06:37:27.047Z,8.50
2018-11-11T06:39:55.609Z,8.60
2018-11-11T06:42:24.852Z,8.60
2018-11-11T06:44:53.421Z,8.60
2018-11-11T06:47:22.002Z,8.60
2018-11-11T06:49:50.599Z,8.60
2018-11-11T06:52:19.185Z,8.50
2018-11-11T06:54:47.790Z,8.50
2018-11-11T06:57:16.410Z,8.50
2018-11-11T06:59:45.021Z,8.60
2018-11-11T07:02:13.621Z,8.60
2018-11-11T07:04:42.387Z,8.60
2018-11-11T07:07:11.049Z,8.60
2018-11-11T07:09:39.625Z,8.60
2018-11-11T07:12:08.225Z,8.60
2018-11-11T07:14:36.800Z,8.60
2018-11-11T07:17:05.689Z,8.60
2018-11-11T07:19:34.369Z,8.60
2018-11-11T07:22:02.947Z,8.60
2018-11-11T07:24:31.527Z,8.60
2018-11-11T07:27:00.398Z,8.60
2018-11-11T07:29:29.346Z,8.60
2018-11-11T07:31:57.982Z,8.60
2018-11-11T07:34:26.570Z,8.60
2018-11-11T07:36:55.251Z,8.60
2018-11-11T07:39:23.827Z,8.60
2018-11-11T07:41:52.793Z,8.60
2018-11-11T07:44:21.426Z,8.60
2018-11-11T07:46:50.067Z,8.60
2018-11-11T07:49:19.025Z,8.70
2018-11-11T07:51:47.662Z,8.70
2018-11-11T07:54:16.256Z,8.60
2018-11-11T07:56:45.213Z,8.70
2018-11-11T07:59:13.793Z,8.70
2018-11-11T08:01:42.412Z,8.70
2018-11-11T08:04:11.418Z,8.70
2018-11-11T08:06:40.006Z,8.70
2018-11-11T08:09:08.608Z,8.70
2018-11-11T08:11:48.658Z,8.70
2018-11-11T08:14:17.246Z,8.70
2018-11-11T08:16:45.956Z,8.70
2018-11-11T08:19:14.903Z,8.70
2018-11-11T08:21:43.465Z,8.70
2018-11-11T08:24:12.049Z,8.80
2018-11-11T08:26:40.898Z,8.80
2018-11-11T08:29:09.576Z,8.80
2018-11-11T08:31:38.378Z,8.80
2018-11-11T08:34:07.298Z,8.90
2018-11-11T08:36:35.914Z,8.90
2018-11-11T08:39:07.542Z,8.90
2018-11-11T08:41:36.154Z,8.90
2018-11-11T08:44:05.203Z,9.00
2018-11-11T08:46:33.777Z,9.10
2018-11-11T08:49:02.742Z,9.10
2018-11-11T08:51:31.330Z,9.10
2018-11-11T08:53:59.917Z,9.20
2018-11-11T08:56:28.688Z,9.20
2018-11-11T08:58:57.257Z,9.20
2018-11-11T09:01:25.865Z,9.20
2018-11-11T09:03:54.681Z,9.20
2018-11-11T09:06:23.458Z,9.20
2018-11-11T09:08:52.223Z,9.30
2018-11-11T09:11:21.547Z,9.20
2018-11-11T09:13:50.501Z,9.30
2018-11-11T09:16:19.441Z,9.30
2018-11-11T09:18:49.049Z,9.30
2018-11-11T09:21:17.770Z,9.30
2018-11-11T09:23:46.463Z,9.30
2018-11-11T09:26:15.057Z,9.30
2018-11-11T09:28:43.646Z,9.30
2018-11-11T09:31:12.218Z,9.30
2018-11-11T09:33:40.860Z,9.30
2018-11-11T09:36:10.382Z,9.30
2018-11-11T09:38:38.990Z,9.30
2018-11-11T09:41:08.801Z,9.30
2018-11-11T09:43:37.412Z,9.30
2018-11-11T09:46:06.154Z,9.30
2018-11-11T09:48:34.742Z,9.30
2018-11-11T09:51:03.328Z,9.30
2018-11-11T09:53:31.904Z,9.30
2018-11-11T09:56:00.509Z,9.30
2018-11-11T09:58:29.127Z,9.40
2018-11-11T10:00:57.710Z,9.40
2018-11-11T10:03:31.610Z,9.40
2018-11-11T10:07:03.822Z,9.30
2018-11-11T10:11:40.834Z,9.30
2018-11-11T10:14:20.984Z,9.40
2018-11-11T10:16:54.868Z,9.40
2018-11-11T10:19:35.148Z,9.40
2018-11-11T10:22:09.003Z,9.40
2018-11-11T10:26:49.584Z,9.40
2018-11-11T10:31:25.406Z,9.30
2018-11-11T10:33:59.114Z,9.30
2018-11-11T10:37:08.079Z,9.30
2018-11-11T10:39:44.610Z,9.30
2018-11-11T10:42:49.033Z,9.30
2018-11-11T10:45:21.854Z,9.30
2018-11-11T10:47:58.353Z,9.30
2018-11-11T10:50:29.881Z,9.30
2018-11-11T10:52:58.446Z,9.30
2018-11-11T10:55:27.030Z,9.30
2018-11-11T10:57:55.639Z,9.30
2018-11-11T11:00:33.494Z,9.30
2018-11-11T11:03:02.190Z,9.30
2018-11-11T11:05:34.517Z,9.30
2018-11-11T11:08:04.331Z,9.30
2018-11-11T11:10:32.917Z,9.30
2018-11-11T11:13:01.830Z,9.30
2018-11-11T11:15:30.462Z,9.40
2018-11-11T11:17:59.064Z,9.40
2018-11-11T11:20:27.858Z,9.40
2018-11-11T11:22:56.471Z,9.40
2018-11-11T11:25:25.063Z,9.30
2018-11-11T11:27:53.802Z,9.30
2018-11-11T11:30:22.354Z,9.30
2018-11-11T11:32:50.949Z,9.20
2018-11-11T11:35:19.630Z,9.20
2018-11-11T11:37:48.165Z,9.20
2018-11-11T11:40:16.787Z,9.20
2018-11-11T11:42:45.606Z,9.20
2018-11-11T11:45:14.249Z,9.10
2018-11-11T11:47:42.979Z,9.10
2018-11-11T11:50:12.959Z,9.10
2018-11-11T11:52:42.129Z,9.10
2018-11-11T11:55:12.501Z,9.10
2018-11-11T11:57:41.807Z,9.20
2018-11-11T12:00:12.378Z,9.10
2018-11-11T12:02:41.202Z,9.10
2018-11-11T12:05:10.477Z,9.10
2018-11-11T12:07:39.072Z,9.10
2018-11-11T12:10:09.553Z,9.10
2018-11-11T12:12:38.792Z,9.00
2018-11-11T12:15:08.249Z,9.00
2018-11-11T12:17:36.902Z,9.00
2018-11-11T12:20:06.451Z,9.00
2018-11-11T12:22:35.070Z,9.00
2018-11-11T12:25:03.693Z,9.00
2018-11-11T12:27:32.661Z,9.00
2018-11-11T12:30:01.262Z,9.00
2018-11-11T12:32:29.886Z,8.90
2018-11-11T12:34:58.560Z,9.00
2018-11-11T12:37:27.139Z,8.90
2018-11-11T12:39:55.859Z,8.90
2018-11-11T12:42:24.301Z,8.90
2018-11-11T12:44:52.969Z,8.80
2018-11-11T12:47:21.521Z,8.80
2018-11-11T12:49:50.335Z,8.80
2018-11-11T12:52:18.897Z,8.70
2018-11-11T12:54:47.512Z,8.70
2018-11-11T12:57:16.430Z,8.70
2018-11-11T12:59:45.026Z,8.60
2018-11-11T13:02:13.598Z,8.60
2018-11-11T13:04:42.277Z,8.60
2018-11-11T13:07:10.926Z,8.60
2018-11-11T13:09:39.489Z,8.60
2018-11-11T13:12:08.421Z,8.60
2018-11-11T13:14:36.883Z,8.60
2018-11-11T13:17:05.497Z,8.50
2018-11-11T13:19:34.450Z,8.50
2018-11-11T13:22:03.110Z,8.50
2018-11-11T13:24:31.750Z,8.50
2018-11-11T13:27:00.633Z,8.50
2018-11-11T13:29:29.314Z,8.50
2018-11-11T13:31:57.903Z,8.50
2018-11-11T13:34:26.834Z,8.50
2018-11-11T13:36:55.466Z,8.50
2018-11-11T13:39:24.050Z,8.50
2018-11-11T13:41:53.052Z,8.50
2018-11-11T13:44:21.652Z,8.50
2018-11-11T13:46:50.288Z,8.40
2018-11-11T13:49:19.400Z,8.40
2018-11-11T13:51:48.245Z,8.40
2018-11-11T13:54:16.838Z,8.30
2018-11-11T13:56:45.417Z,8.30
2018-11-11T13:59:13.998Z,8.30
2018-11-11T14:01:42.834Z,8.30
2018-11-11T14:04:11.862Z,8.30
2018-11-11T14:06:40.438Z,8.30
2018-11-11T14:09:11.413Z,8.30
2018-11-11T14:11:40.364Z,8.20
2018-11-11T14:14:09.301Z,8.20
2018-11-11T14:16:38.451Z,8.20
2018-11-11T14:19:08.115Z,8.20
2018-11-11T14:21:36.449Z,8.20
2018-11-11T14:24:05.130Z,8.10
2018-11-11T14:26:33.883Z,8.10
2018-11-11T14:29:02.442Z,8.10
2018-11-11T14:31:31.038Z,8.10
2018-11-11T14:33:59.809Z,8.00
2018-11-11T14:36:28.413Z,8.00
2018-11-11T14:38:57.002Z,8.00
2018-11-11T14:41:25.914Z,8.00
2018-11-11T14:43:54.526Z,7.90
2018-11-11T14:46:23.150Z,7.90
2018-11-11T14:48:52.027Z,7.90
2018-11-11T14:51:20.630Z,7.90
2018-11-11T14:53:49.282Z,7.80
2018-11-11T14:56:18.349Z,7.80
2018-11-11T14:58:47.029Z,7.80
2018-11-11T15:01:15.583Z,7.80
2018-11-11T15:03:44.217Z,7.80
2018-11-11T15:06:12.781Z,7.80
2018-11-11T15:08:41.363Z,7.80
2018-11-11T15:11:09.969Z,7.80
2018-11-11T15:13:38.541Z,7.80
2018-11-11T15:16:07.281Z,7.80
2018-11-11T15:18:36.222Z,7.70
2018-11-11T15:21:05.122Z,7.70
2018-11-11T15:23:33.730Z,7.80
2018-11-11T15:26:02.345Z,7.70
2018-11-11T15:28:30.962Z,7.80
2018-11-11T15:30:59.660Z,7.80
2018-11-11T15:33:28.387Z,7.80
2018-11-11T15:35:57.150Z,7.80
2018-11-11T15:38:25.615Z,7.80
2018-11-11T15:40:54.455Z,7.90
2018-11-11T15:43:23.036Z,7.90
2018-11-11T15:45:51.685Z,7.80
2018-11-11T15:48:20.561Z,7.80
2018-11-11T15:50:49.149Z,7.80
2018-11-11T15:53:17.752Z,7.90
2018-11-11T15:55:46.294Z,7.90
2018-11-11T15:58:14.914Z,7.90
2018-11-11T16:00:43.869Z,7.90
2018-11-11T16:03:12.718Z,7.90
2018-11-11T16:05:41.333Z,7.90
2018-11-11T16:08:09.922Z,7.90
2018-11-11T16:10:38.851Z,7.90
2018-11-11T16:13:07.442Z,7.90
2018-11-11T16:15:38.585Z,7.90
2018-11-11T16:18:09.213Z,7.90
2018-11-11T16:20:37.817Z,7.90
2018-11-11T16:23:07.321Z,7.90
2018-11-11T16:25:36.365Z,7.90
2018-11-11T16:28:05.166Z,7.90
2018-11-11T16:30:36.058Z,7.90
2018-11-11T16:33:05.590Z,7.90
2018-11-11T16:35:34.188Z,7.90
2018-11-11T16:38:03.034Z,7.90
2018-11-11T16:40:33.134Z,7.90
2018-11-11T16:43:01.891Z,8.00
2018-11-11T16:45:31.671Z,8.00
2018-11-11T16:48:00.414Z,8.00
2018-11-11T16:50:30.346Z,8.00
2018-11-11T16:53:00.478Z,8.00
2018-11-11T16:55:30.582Z,8.00
2018-11-11T16:57:59.110Z,8.00
2018-11-11T17:00:28.950Z,8.00
2018-11-11T17:02:58.733Z,8.00
2018-11-11T17:05:29.765Z,7.90
2018-11-11T17:07:58.381Z,7.90
2018-11-11T17:10:28.730Z,8.00
2018-11-11T17:12:58.611Z,7.90
2018-11-11T17:15:28.366Z,8.00
2018-11-11T17:17:57.362Z,8.00
2018-11-11T17:20:26.693Z,8.00
2018-11-11T17:22:56.594Z,7.90
2018-11-11T17:25:26.158Z,8.00
2018-11-11T17:27:54.925Z,7.90
2018-11-11T17:30:27.717Z,7.90
2018-11-11T17:32:57.149Z,7.90
2018-11-11T17:35:26.310Z,7.90
2018-11-11T17:37:55.280Z,7.90
2018-11-11T17:40:30.903Z,7.90
2018-11-11T17:43:00.273Z,7.80
2018-11-11T17:45:28.909Z,7.80
2018-11-11T17:47:57.898Z,7.80
2018-11-11T17:50:31.109Z,7.80
2018-11-11T17:53:00.601Z,7.80
2018-11-11T17:55:29.709Z,7.70
2018-11-11T17:57:58.665Z,7.70
2018-11-11T18:00:28.297Z,7.70
2018-11-11T18:02:57.544Z,7.70
2018-11-11T18:05:28.846Z,7.70
2018-11-11T18:07:57.659Z,7.60
2018-11-11T18:10:26.734Z,7.60
2018-11-11T18:12:55.735Z,7.60
2018-11-11T18:15:27.590Z,7.60
2018-11-11T18:17:56.541Z,7.60
2018-11-11T18:20:26.504Z,7.60
2018-11-11T18:22:55.898Z,7.60
2018-11-11T18:25:24.490Z,7.60
2018-11-11T18:27:53.142Z,7.60
2018-11-11T18:30:25.659Z,7.60
2018-11-11T18:32:54.482Z,7.60
2018-11-11T18:35:23.158Z,7.60
2018-11-11T18:37:51.866Z,7.60
2018-11-11T18:40:21.785Z,7.60
2018-11-11T18:42:50.387Z,7.60
2018-11-11T18:45:20.985Z,7.60
2018-11-11T18:47:50.149Z,7.60
2018-11-11T18:50:25.679Z,7.60
2018-11-11T18:52:54.254Z,7.60
2018-11-11T18:55:22.909Z,7.50
2018-11-11T18:57:51.593Z,7.60
2018-11-11T19:00:22.685Z,7.60
2018-11-11T19:02:52.274Z,7.60
2018-11-11T19:05:21.630Z,7.50
2018-11-11T19:07:50.554Z,7.50
2018-11-11T19:10:21.601Z,7.50
2018-11-11T19:12:51.512Z,7.50
2018-11-11T19:15:20.733Z,7.50
2018-11-11T19:17:50.031Z,7.50
2018-11-11T19:20:19.974Z,7.50
2018-11-11T19:22:48.642Z,7.50
2018-11-11T19:25:19.295Z,7.50
2018-11-11T19:27:49.193Z,7.50
2018-11-11T19:30:18.932Z,7.50
2018-11-11T19:32:48.470Z,7.50
2018-11-11T19:35:17.486Z,7.50
2018-11-11T19:37:47.249Z,7.50
2018-11-11T19:40:20.058Z,7.50
2018-11-11T19:42:50.906Z,7.40
2018-11-11T19:45:20.902Z,7.40
2018-11-11T19:47:49.513Z,7.40
2018-11-11T19:50:19.421Z,7.40
2018-11-11T19:52:49.128Z,7.40
2018-11-11T19:55:18.869Z,7.40
2018-11-11T19:57:47.433Z,7.40
2018-11-11T20:00:19.472Z,7.40
2018-11-11T20:02:49.018Z,7.40
2018-11-11T20:05:18.204Z,7.40
2018-11-11T20:07:47.814Z,7.40
2018-11-11T20:10:17.457Z,7.40
2018-11-11T20:12:46.056Z,7.50
2018-11-11T20:15:16.847Z,7.50
2018-11-11T20:17:45.843Z,7.50
2018-11-11T20:20:15.983Z,7.50
2018-11-11T20:22:44.609Z,7.50
2018-11-11T20:25:14.254Z,7.40
2018-11-11T20:27:43.361Z,7.40
2018-11-11T20:30:14.725Z,7.40
2018-11-11T20:32:43.367Z,7.40
2018-11-11T20:35:13.388Z,7.40
2018-11-11T20:37:42.298Z,7.40
2018-11-11T20:40:12.713Z,7.40
2018-11-11T20:42:42.104Z,7.40
2018-11-11T20:45:11.853Z,7.50
2018-11-11T20:47:41.322Z,7.50
2018-11-11T20:50:14.569Z,7.50
2018-11-11T20:52:44.000Z,7.50
2018-11-11T20:55:13.076Z,7.50
2018-11-11T20:57:42.010Z,7.50
2018-11-11T21:00:18.892Z,7.50
2018-11-11T21:02:47.546Z,7.50
2018-11-11T21:05:21.131Z,7.50
2018-11-11T21:07:50.140Z,7.50
2018-11-11T21:10:21.102Z,7.50
2018-11-11T21:12:49.721Z,7.50
2018-11-11T21:18:34.058Z,7.50
2018-11-11T21:21:04.278Z,7.50
2018-11-11T21:23:33.398Z,7.50
2018-11-11T21:26:03.703Z,7.40
2018-11-11T21:28:34.490Z,7.50
2018-11-11T21:31:07.872Z,7.50
2018-11-11T21:33:38.381Z,7.50
2018-11-11T21:36:07.447Z,7.50
2018-11-11T21:38:42.729Z,7.50
2018-11-11T21:41:11.802Z,7.50
2018-11-11T21:43:41.082Z,7.50
2018-11-11T21:46:10.694Z,7.50
2018-11-11T21:48:39.779Z,7.50
2018-11-11T21:51:09.047Z,7.50
2018-11-11T21:53:39.378Z,7.50
2018-11-11T21:56:08.896Z,7.50
2018-11-11T21:58:37.722Z,7.50
2018-11-11T22:01:07.656Z,7.60
2018-11-11T22:03:36.339Z,7.60
2018-11-11T22:06:05.279Z,7.50
2018-11-11T22:08:34.068Z,7.50
2018-11-11T22:11:03.284Z,7.60
2018-11-11T22:13:34.685Z,7.60
2018-11-11T22:16:04.286Z,7.60
2018-11-11T22:18:33.182Z,7.60
2018-11-11T22:21:01.892Z,7.60
2018-11-11T22:23:31.099Z,7.60
2018-11-11T22:25:59.757Z,7.60
2018-11-11T22:28:28.406Z,7.60
2018-11-11T22:30:57.173Z,7.60
2018-11-11T22:33:25.906Z,7.60
2018-11-11T22:35:54.802Z,7.70
2018-11-11T22:38:23.885Z,7.70
2018-11-11T22:40:52.651Z,7.70
2018-11-11T22:43:21.595Z,7.70
2018-11-11T22:45:50.594Z,7.70
2018-11-11T22:48:19.373Z,7.70
2018-11-11T22:50:48.227Z,7.70
2018-11-11T22:53:17.476Z,7.70
2018-11-11T22:55:46.325Z,7.70
2018-11-11T22:58:15.195Z,7.70
2018-11-11T23:00:49.359Z,7.70
2018-11-11T23:03:18.193Z,7.70
2018-11-11T23:05:46.915Z,7.70
2018-11-11T23:08:16.028Z,7.70
2018-11-11T23:10:44.852Z,7.70
2018-11-11T23:13:13.589Z,7.70
2018-11-11T23:15:42.966Z,7.70
2018-11-11T23:18:11.894Z,7.70
2018-11-11T23:20:40.758Z,7.60
2018-11-11T23:23:09.688Z,7.60
2018-11-11T23:25:38.538Z,7.60
2018-11-11T23:28:07.443Z,7.60
2018-11-11T23:30:36.350Z,7.70
2018-11-11T23:33:05.265Z,7.70
2018-11-11T23:35:34.106Z,7.70
2018-11-11T23:38:02.835Z,7.70
2018-11-11T23:40:31.640Z,7.70
2018-11-11T23:43:00.619Z,7.70
2018-11-11T23:45:29.919Z,7.70
2018-11-11T23:47:58.646Z,7.70
2018-11-11T23:50:27.406Z,7.70
2018-11-11T23:52:56.194Z,7.70
2018-11-11T23:55:24.892Z,7.80
2018-11-11T23:57:53.643Z,7.80
